Terminal Aerodrome Forecast
Issued by NWS Sioux Falls, SD

Home | Current Version | Previous Version | Text Only | Print | Product List | Glossary Off
Versions: 1 2 3 4 5 6 7 8 9 10 11 12 13 14 15 16 17 18 19 20 21 22 23 24 25 26 27 28 29 30 31 32 33 34 35 36 37 38

000
FTUS43 KFSD 301603 AAB
TAFSUX
TAF AMD
KSUX 301603Z 3016/0112 06005KT 5SM FU SCT050 OVC140
      TEMPO 3016/3018 3SM SHRA FU BKN050
     FM301800 07007KT 6SM FU SCT050 BKN120
      TEMPO 0101/0103 -TSRA BKN070CB=

USA.gov is the U.S. government's official web portal to all federal, state and local government web resources and services.